createdAt,value
2022-08-08T00:03:48.033Z,1.20
2022-08-08T00:09:27.637Z,1.40
2022-08-08T00:15:55.833Z,1.30
2022-08-08T00:21:44.042Z,1.30
2022-08-08T00:27:09.164Z,1.80
2022-08-08T00:32:56.719Z,1.20
2022-08-08T00:38:54.602Z,1.70
2022-08-08T00:44:32.214Z,1.90
2022-08-08T00:50:11.579Z,1.60
2022-08-08T00:56:04.466Z,1.80
2022-08-08T01:01:55.705Z,1.90
2022-08-08T01:08:11.479Z,1.60
2022-08-08T01:14:54.109Z,1.60
2022-08-08T01:20:31.863Z,1.60
2022-08-08T01:26:55.512Z,2.00
2022-08-08T01:33:02.827Z,1.80
2022-08-08T01:39:41.920Z,2.10
2022-08-08T01:45:56.619Z,1.60
2022-08-08T01:53:05.115Z,1.70
2022-08-08T01:58:53.037Z,1.80
2022-08-08T02:05:06.843Z,2.40
2022-08-08T02:11:01.131Z,2.10
2022-08-08T02:17:10.580Z,1.80
2022-08-08T02:23:00.506Z,1.90
2022-08-08T02:28:48.095Z,2.90
2022-08-08T02:35:19.829Z,2.70
2022-08-08T02:42:04.112Z,2.30
2022-08-08T02:48:26.180Z,2.30
2022-08-08T02:54:50.056Z,2.10
2022-08-08T03:00:29.573Z,1.60
2022-08-08T03:06:34.837Z,1.90
2022-08-08T03:13:02.065Z,1.90
2022-08-08T03:18:52.437Z,1.70
2022-08-08T03:24:02.135Z,1.80
2022-08-08T03:29:56.229Z,1.60
2022-08-08T03:35:04.673Z,1.50
2022-08-08T03:40:30.593Z,1.80
2022-08-08T03:46:07.146Z,1.70
2022-08-08T03:51:15.890Z,1.90
2022-08-08T03:56:55.305Z,1.70
2022-08-08T04:02:47.624Z,1.90
2022-08-08T04:08:06.204Z,1.70
2022-08-08T04:14:03.895Z,1.90
2022-08-08T04:19:04.344Z,1.80
2022-08-08T04:24:31.001Z,1.80
2022-08-08T04:30:17.997Z,1.70
2022-08-08T04:35:26.336Z,1.70
2022-08-08T04:40:53.491Z,1.90
2022-08-08T04:46:02.255Z,1.70
2022-08-08T04:51:54.830Z,1.50
2022-08-08T04:57:05.797Z,1.70
2022-08-08T05:02:35.378Z,1.60
2022-08-08T05:07:46.797Z,1.80
2022-08-08T05:13:00.186Z,1.80
2022-08-08T05:18:08.947Z,1.60
2022-08-08T05:23:12.313Z,1.90
2022-08-08T05:28:48.322Z,1.60
2022-08-08T05:33:49.516Z,1.50
2022-08-08T05:38:59.554Z,1.40
2022-08-08T05:44:14.438Z,1.70
2022-08-08T05:49:19.950Z,1.50
2022-08-08T05:54:42.865Z,1.80
2022-08-08T05:59:58.801Z,1.70
2022-08-08T06:05:16.300Z,1.50
2022-08-08T06:10:34.903Z,1.20
2022-08-08T06:15:50.736Z,1.10
2022-08-08T06:21:11.299Z,1.20
2022-08-08T06:26:43.543Z,1.20
2022-08-08T06:31:52.595Z,1.00
2022-08-08T06:37:24.400Z,0.90
2022-08-08T06:42:48.940Z,1.10
2022-08-08T06:48:00.679Z,0.80
2022-08-08T06:53:14.190Z,1.10
2022-08-08T06:58:30.225Z,1.00
2022-08-08T07:04:37.162Z,0.90
2022-08-08T07:09:45.401Z,0.90
2022-08-08T07:15:31.723Z,1.00
2022-08-08T07:20:50.473Z,1.20
2022-08-08T07:26:02.887Z,0.80
2022-08-08T07:31:06.810Z,1.50
2022-08-08T07:36:16.397Z,1.10
2022-08-08T07:41:24.718Z,0.90
2022-08-08T07:46:37.421Z,0.70
2022-08-08T07:51:53.569Z,1.20
2022-08-08T07:57:45.022Z,0.80
2022-08-08T08:03:20.766Z,1.00
2022-08-08T08:08:50.442Z,0.70
2022-08-08T08:14:09.896Z,0.50
2022-08-08T08:19:16.141Z,0.80
2022-08-08T08:24:19.583Z,0.50
2022-08-08T08:29:28.822Z,0.80
2022-08-08T08:34:33.470Z,0.80
2022-08-08T08:40:00.472Z,0.60
2022-08-08T08:45:21.737Z,0.70
2022-08-08T08:50:34.864Z,0.70
2022-08-08T08:55:41.271Z,0.60
2022-08-08T09:01:05.009Z,0.90
2022-08-08T09:06:26.813Z,0.90
2022-08-08T09:11:47.512Z,0.90
2022-08-08T09:17:11.523Z,1.00
2022-08-08T09:22:25.872Z,1.30
2022-08-08T09:27:55.769Z,1.00
2022-08-08T09:33:13.174Z,0.90
2022-08-08T09:39:00.811Z,0.70
2022-08-08T09:44:33.796Z,0.90
2022-08-08T09:49:49.491Z,0.90
2022-08-08T09:54:59.209Z,0.80
2022-08-08T10:05:39.743Z,0.80
2022-08-08T10:10:51.284Z,0.90
2022-08-08T10:16:00.671Z,0.90
2022-08-08T10:21:25.424Z,0.90
2022-08-08T10:26:59.430Z,0.70
2022-08-08T10:32:38.997Z,1.00
2022-08-08T10:38:03.150Z,1.10
2022-08-08T10:43:12.586Z,1.10
2022-08-08T10:48:17.548Z,1.20
2022-08-08T10:53:58.066Z,1.00
2022-08-08T10:59:12.115Z,0.90
2022-08-08T11:04:29.547Z,1.60
2022-08-08T11:09:48.227Z,1.30
2022-08-08T11:15:01.596Z,0.90
2022-08-08T11:20:11.020Z,0.90
2022-08-08T11:25:16.627Z,0.90
2022-08-08T11:30:24.859Z,1.10
2022-08-08T11:35:37.779Z,1.00
2022-08-08T11:40:51.761Z,1.00
2022-08-08T11:46:13.816Z,1.00
2022-08-08T11:51:30.848Z,1.00
2022-08-08T11:56:42.995Z,0.90
2022-08-08T12:01:49.350Z,1.50
2022-08-08T12:07:17.773Z,0.90
2022-08-08T12:12:28.692Z,1.00
2022-08-08T12:17:36.065Z,1.00
2022-08-08T12:22:52.644Z,1.00
2022-08-08T12:28:19.097Z,1.00
2022-08-08T12:35:57.561Z,1.20
2022-08-08T12:41:33.399Z,1.00
2022-08-08T12:46:37.439Z,0.90
2022-08-08T12:51:59.332Z,1.00
2022-08-08T12:57:23.436Z,1.10
2022-08-08T13:02:35.988Z,1.10
2022-08-08T13:08:03.342Z,1.50
2022-08-08T13:13:07.983Z,1.20
2022-08-08T13:18:14.104Z,0.90
2022-08-08T13:23:36.095Z,1.40
2022-08-08T13:28:45.897Z,1.30
2022-08-08T13:33:54.508Z,1.00
2022-08-08T13:39:06.809Z,1.20
2022-08-08T13:44:13.805Z,1.00
2022-08-08T13:50:35.689Z,1.30
2022-08-08T13:54:50.614Z,1.10
2022-08-08T14:00:26.996Z,0.90
2022-08-08T14:05:36.233Z,1.20
2022-08-08T14:10:59.647Z,1.30
2022-08-08T14:16:12.818Z,1.80
2022-08-08T14:21:22.504Z,1.30
2022-08-08T14:26:28.321Z,1.30
2022-08-08T14:31:36.722Z,1.40
2022-08-08T14:36:55.922Z,1.50
2022-08-08T14:42:07.528Z,1.30
2022-08-08T14:47:21.412Z,1.70
2022-08-08T14:52:27.400Z,1.60
2022-08-08T14:58:06.723Z,1.30
2022-08-08T15:02:58.787Z,1.40
2022-08-08T15:08:35.432Z,1.40
2022-08-08T15:14:01.777Z,1.30
2022-08-08T15:19:05.788Z,1.10
2022-08-08T15:24:16.158Z,1.20
2022-08-08T15:29:24.265Z,1.10
2022-08-08T15:34:31.654Z,1.20
2022-08-08T15:39:39.425Z,0.80
2022-08-08T15:44:43.650Z,1.00
2022-08-08T15:49:49.477Z,1.30
2022-08-08T15:54:53.097Z,1.20
2022-08-08T16:00:06.876Z,1.30
2022-08-08T16:05:23.514Z,1.20
2022-08-08T16:13:02.256Z,1.00
2022-08-08T16:15:57.639Z,1.10
2022-08-08T16:21:26.037Z,1.00
2022-08-08T16:26:35.343Z,1.20
2022-08-08T16:31:48.363Z,0.90
2022-08-08T16:36:58.901Z,1.50
2022-08-08T16:42:40.625Z,1.60
2022-08-08T16:47:44.483Z,1.10
2022-08-08T16:55:03.013Z,1.70
2022-08-08T16:58:20.457Z,1.30
2022-08-08T17:03:58.392Z,1.60
2022-08-08T17:08:52.506Z,1.10
2022-08-08T17:14:01.598Z,1.10
2022-08-08T17:19:05.176Z,1.50
2022-08-08T17:31:44.952Z,1.00
2022-08-08T17:36:34.514Z,1.60
2022-08-08T17:41:47.953Z,1.30
2022-08-08T17:46:54.665Z,1.40
2022-08-08T17:52:06.994Z,1.40
2022-08-08T17:57:14.338Z,1.80
2022-08-08T18:02:21.271Z,1.70
2022-08-08T18:08:03.330Z,2.20
2022-08-08T18:12:48.653Z,1.80
2022-08-08T18:18:09.445Z,1.20
2022-08-08T18:23:15.392Z,1.20
2022-08-08T18:28:23.399Z,1.10
2022-08-08T18:34:10.824Z,1.10
2022-08-08T18:38:58.512Z,1.40
2022-08-08T18:44:01.746Z,2.00
2022-08-08T18:49:07.226Z,2.30
2022-08-08T18:54:21.971Z,1.70
2022-08-08T18:59:28.983Z,1.80
2022-08-08T19:04:38.749Z,1.40
2022-08-08T19:09:49.167Z,1.50
2022-08-08T19:15:08.585Z,1.50
2022-08-08T19:20:14.366Z,1.60
2022-08-08T19:26:19.897Z,1.30
2022-08-08T19:30:51.482Z,1.80
2022-08-08T19:36:08.324Z,2.10
2022-08-08T19:41:21.207Z,1.60
2022-08-08T19:46:33.244Z,1.90
2022-08-08T19:51:43.604Z,1.70
2022-08-08T19:56:57.501Z,2.40
2022-08-08T20:02:11.977Z,2.00
2022-08-08T20:08:39.521Z,2.20
2022-08-08T20:14:11.889Z,2.50
2022-08-08T20:18:39.903Z,1.70
2022-08-08T20:23:57.891Z,2.30
2022-08-08T20:29:55.383Z,2.60
2022-08-08T20:35:01.348Z,1.80
2022-08-08T20:40:07.293Z,2.10
2022-08-08T20:45:55.259Z,2.00
2022-08-08T20:51:14.405Z,1.90
2022-08-08T20:56:34.945Z,2.00
2022-08-08T21:01:44.316Z,2.00
2022-08-08T21:07:03.122Z,2.30
2022-08-08T21:12:16.652Z,2.20
2022-08-08T21:17:31.291Z,1.70
2022-08-08T21:22:37.946Z,2.20
2022-08-08T21:28:09.090Z,2.30
2022-08-08T21:33:26.377Z,2.20
2022-08-08T21:38:44.805Z,2.10
2022-08-08T21:43:56.768Z,2.30
2022-08-08T21:49:03.702Z,2.60
2022-08-08T21:54:52.337Z,2.60
2022-08-08T22:00:08.703Z,2.00
2022-08-08T22:05:29.598Z,2.40
2022-08-08T22:11:59.565Z,2.40
2022-08-08T22:17:08.758Z,2.90
2022-08-08T22:22:28.780Z,2.30
2022-08-08T22:28:03.543Z,2.70
2022-08-08T22:34:13.772Z,2.60
2022-08-08T22:39:39.561Z,2.50
2022-08-08T22:44:56.868Z,2.20
2022-08-08T22:50:02.911Z,2.00
2022-08-08T22:55:10.580Z,2.50
2022-08-08T23:00:39.018Z,3.20
2022-08-08T23:05:49.791Z,4.40
2022-08-08T23:11:13.460Z,3.50
2022-08-08T23:16:38.378Z,3.10
2022-08-08T23:22:08.070Z,2.80
2022-08-08T23:27:38.041Z,3.10
2022-08-08T23:34:15.429Z,3.50
2022-08-08T23:39:13.461Z,2.90
2022-08-08T23:44:45.194Z,3.10
2022-08-08T23:50:30.275Z,3.10
2022-08-08T23:56:32.528Z,3.40
